Terminal Aerodrome Forecast
Issued by NWS Dallas/Fort Worth, TX

Home | Current Version | Previous Version | Text Only | Print | Product List | Glossary On
Versions: 1 2 3 4 5 6 7 8 9 10 11 12 13 14 15 16 17 18 19 20 21 22 23 24 25 26 27
204
FTUS44 KFWD 261736
TAFDFW
TAF
KDFW 261736Z 2618/2724 15007KT P6SM VCTS BKN040CB
      TEMPO 2619/2622 VRB15G30KT 5SM -TSRA
     FM262300 13008KT P6SM VCSH BKN050
     FM270100 14007KT P6SM FEW050 BKN150
     FM271800 12007KT P6SM VCSH BKN050=

USA.gov is the U.S. government's official web portal to all federal, state and local government web resources and services.